Time;durP1;ratioP1;P1;durP2;ratioP2;P2;SDS_P1;SDS_P2;PMS_P1;PMS_P2;Temp;Humidity;BMP_temperature;BMP_pressure;BME280_temperature;BME280_humidity;BME280_pressure;Samples;Min_cycle;Max_cycle;Signal;HPM_P1;HPM_P2
2022/03/10 00:00:50;;;;;;;;;;;;;;;;;;2102709;28;20379;-49
2022/03/10 00:01:51;;;;;;;;;;;;;;;;;;2098312;28;20335;-49
2022/03/10 00:02:53;;;;;;;;;;;;;;;;;;2100582;28;20389;-50
2022/03/10 00:03:54;;;;;;;;;;;;;;;;;;2105516;28;19931;-51
2022/03/10 00:04:55;;;;;;;;;;;;;;;;;;2098675;28;19986;-46
2022/03/10 00:05:56;;;;;;;;;;;;;;;;;;2104999;28;19964;-46
2022/03/10 00:06:58;;;;;;;;;;;;;;;;;;2105754;28;20471;-46
2022/03/10 00:07:59;;;;;;;;;;;;;;;;;;2107019;28;19931;-46
2022/03/10 00:09:02;;;;;;;;;;;;;;;;;;2107648;28;19967;-49
2022/03/10 00:10:03;;;;;;;;;;;;;;;;;;2106599;28;20031;-49
2022/03/10 00:11:05;;;;;;;;;;;;;;;;;;2101492;28;19928;-50
2022/03/10 00:12:06;;;;;;;;;;;;;;;;;;2106165;28;20014;-47
2022/03/10 00:13:07;;;;;;;;;;;;;;;;;;2106295;28;20458;-46
2022/03/10 00:14:10;;;;;;;;;;;;;;;;;;2101084;28;19928;-51
2022/03/10 00:15:12;;;;;;;;;;;;;;;;;;2102387;28;20389;-45
2022/03/10 00:16:15;;;;;;;;;;;;;;;;;;2098385;28;21558;-46
2022/03/10 00:17:17;;;;;;;;;;;;;;;;;;2101045;28;20293;-46
2022/03/10 00:18:18;;;;;;;;;;;;;;;;;;2104335;28;19924;-46
2022/03/10 00:19:19;;;;;;;;;;;;;;;;;;2098475;28;19931;-46
2022/03/10 00:20:21;;;;;;;;;;;;;;;;;;2103371;28;19970;-45
2022/03/10 00:21:23;;;;;;;;;;;;;;;;;;2106272;28;19924;-49
2022/03/10 00:22:26;;;;;;;;;;;;;;;;;;2106635;28;19927;-49
2022/03/10 00:23:28;;;;;;;;;;;;;;;;;;2104082;28;20289;-47
2022/03/10 00:24:30;;;;;;;;;;;;;;;;;;2103631;28;20377;-45
2022/03/10 00:25:31;;;;;;;;;;;;;;;;;;2101373;28;19963;-45
2022/03/10 00:26:32;;;;;;;;;;;;;;;;;;2100756;28;20292;-46
2022/03/10 00:27:34;;;;;;;;;;;;;;;;;;2104083;28;19956;-48
2022/03/10 00:28:35;;;;;;;;;;;;;;;;;;2098652;28;19931;-45
2022/03/10 00:29:36;;;;;;;;;;;;;;;;;;2106864;28;20009;-49
2022/03/10 00:30:37;;;;;;;;;;;;;;;;;;2106454;28;20300;-50
2022/03/10 00:31:40;;;;;;;;;;;;;;;;;;2109722;28;19924;-49
2022/03/10 00:32:41;;;;;;;;;;;;;;;;;;2101661;28;19947;-45
2022/03/10 00:33:42;;;;;;;;;;;;;;;;;;2099997;28;19993;-49
2022/03/10 00:34:43;;;;;;;;;;;;;;;;;;2106624;28;19924;-50
2022/03/10 00:35:46;;;;;;;;;;;;;;;;;;2103847;28;19924;-46
2022/03/10 00:36:47;;;;;;;;;;;;;;;;;;2106755;28;20014;-46
2022/03/10 00:37:48;;;;;;;;;;;;;;;;;;2107147;28;20033;-46
2022/03/10 00:38:50;;;;;;;;;;;;;;;;;;2106796;28;20011;-45
2022/03/10 00:39:51;;;;;;;;;;;;;;;;;;2106627;28;19924;-46
2022/03/10 00:40:52;;;;;;;;;;;;;;;;;;2102556;28;19994;-46
2022/03/10 00:41:53;;;;;;;;;;;;;;;;;;2098385;28;19925;-46
2022/03/10 00:42:54;;;;;;;;;;;;;;;;;;2105586;28;19967;-45
2022/03/10 00:43:55;;;;;;;;;;;;;;;;;;2106699;28;20448;-46
2022/03/10 00:44:57;;;;;;;;;;;;;;;;;;2106590;28;19930;-46
2022/03/10 00:45:58;;;;;;;;;;;;;;;;;;2106960;28;19932;-46
2022/03/10 00:46:59;;;;;;;;;;;;;;;;;;2098420;28;19928;-45
2022/03/10 00:48:00;;;;;;;;;;;;;;;;;;2102870;28;20385;-46
2022/03/10 00:49:01;;;;;;;;;;;;;;;;;;2115162;28;19923;-45
2022/03/10 00:50:03;;;;;;;;;;;;;;;;;;2115376;28;19967;-46
2022/03/10 00:51:04;;;;;;;;;;;;;;;;;;2112187;28;19967;-49
2022/03/10 00:52:05;;;;;;;;;;;;;;;;;;2100610;28;19974;-52
2022/03/10 00:53:06;;;;;;;;;;;;;;;;;;2097598;28;20382;-49
2022/03/10 00:54:07;;;;;;;;;;;;;;;;;;2097528;28;20019;-50
2022/03/10 00:55:09;;;;;;;;;;;;;;;;;;2097444;28;20447;-50
2022/03/10 00:56:10;;;;;;;;;;;;;;;;;;2097569;28;19925;-51
2022/03/10 00:57:11;;;;;;;;;;;;;;;;;;2103093;28;19969;-49
2022/03/10 00:58:12;;;;;;;;;;;;;;;;;;2106669;28;20316;-49
2022/03/10 00:59:13;;;;;;;;;;;;;;;;;;2106557;28;20289;-50
2022/03/10 01:00:14;;;;;;;;;;;;;;;;;;2106604;28;19970;-51
2022/03/10 01:01:16;;;;;;;;;;;;;;;;;;2106538;28;19967;-49
2022/03/10 01:02:17;;;;;;;;;;;;;;;;;;2102651;28;19925;-46
2022/03/10 01:03:19;;;;;;;;;;;;;;;;;;2098322;28;19924;-45
2022/03/10 01:04:21;;;;;;;;;;;;;;;;;;2103724;28;19924;-46
2022/03/10 01:05:22;;;;;;;;;;;;;;;;;;2106477;28;19969;-46
2022/03/10 01:06:23;;;;;;;;;;;;;;;;;;2103508;28;20298;-46
2022/03/10 01:07:24;;;;;;;;;;;;;;;;;;2101558;28;19973;-46
2022/03/10 01:08:25;;;;;;;;;;;;;;;;;;2100574;28;19932;-46
2022/03/10 01:09:27;;;;;;;;;;;;;;;;;;2106113;28;19924;-46
2022/03/10 01:10:28;;;;;;;;;;;;;;;;;;2106517;28;20385;-46
2022/03/10 01:11:29;;;;;;;;;;;;;;;;;;2106375;28;20404;-46
2022/03/10 01:12:30;;;;;;;;;;;;;;;;;;2105546;28;19932;-45
2022/03/10 01:13:32;;;;;;;;;;;;;;;;;;2099819;28;19970;-45
2022/03/10 01:14:33;;;;;;;;;;;;;;;;;;2101671;28;19973;-45
2022/03/10 01:15:34;;;;;;;;;;;;;;;;;;2106557;28;20314;-45
2022/03/10 01:16:35;;;;;;;;;;;;;;;;;;2106708;28;19924;-45
2022/03/10 01:17:36;;;;;;;;;;;;;;;;;;2106559;28;19971;-45
2022/03/10 01:18:38;;;;;;;;;;;;;;;;;;2102606;28;19970;-46
2022/03/10 01:19:39;;;;;;;;;;;;;;;;;;2098212;28;19924;-47
2022/03/10 01:20:40;;;;;;;;;;;;;;;;;;2098035;28;19924;-45
2022/03/10 01:21:41;;;;;;;;;;;;;;;;;;2103474;28;20003;-47
2022/03/10 01:22:43;;;;;;;;;;;;;;;;;;2106433;28;19975;-46
2022/03/10 01:23:43;;;;;;;;;;;;;;;;;;2106227;28;19978;-45
2022/03/10 01:24:45;;;;;;;;;;;;;;;;;;2106453;28;19986;-46
2022/03/10 01:25:46;;;;;;;;;;;;;;;;;;2106407;28;20292;-46
2022/03/10 01:26:50;;;;;;;;;;;;;;;;;;2106062;28;20406;-45
2022/03/10 01:27:51;;;;;;;;;;;;;;;;;;2106323;28;19975;-46
2022/03/10 01:28:52;;;;;;;;;;;;;;;;;;2106383;28;19963;-45
2022/03/10 01:29:53;;;;;;;;;;;;;;;;;;2106308;28;20022;-45
2022/03/10 01:30:54;;;;;;;;;;;;;;;;;;2106349;28;19982;-45
2022/03/10 01:31:55;;;;;;;;;;;;;;;;;;2112461;28;20334;-46
2022/03/10 01:32:56;;;;;;;;;;;;;;;;;;2114732;28;19955;-46
2022/03/10 01:33:59;;;;;;;;;;;;;;;;;;2114850;28;20436;-45
2022/03/10 01:35:01;;;;;;;;;;;;;;;;;;2112220;28;20367;-46
2022/03/10 01:36:02;;;;;;;;;;;;;;;;;;2106175;28;19966;-46
2022/03/10 01:37:03;;;;;;;;;;;;;;;;;;2106422;28;19971;-46
2022/03/10 01:38:04;;;;;;;;;;;;;;;;;;2106365;28;20009;-45
2022/03/10 01:39:08;;;;;;;;;;;;;;;;;;2106262;28;19932;-46
2022/03/10 01:40:09;;;;;;;;;;;;;;;;;;2106294;28;19928;-46
2022/03/10 01:41:10;;;;;;;;;;;;;;;;;;2106167;28;19931;-46
2022/03/10 01:42:11;;;;;;;;;;;;;;;;;;2106370;28;19959;-45
2022/03/10 01:43:12;;;;;;;;;;;;;;;;;;2099305;28;19972;-46
2022/03/10 01:44:13;;;;;;;;;;;;;;;;;;2097953;28;19924;-45
2022/03/10 01:45:14;;;;;;;;;;;;;;;;;;2097838;28;19929;-45
2022/03/10 01:46:16;;;;;;;;;;;;;;;;;;2098166;28;19932;-46
2022/03/10 01:47:17;;;;;;;;;;;;;;;;;;2097437;28;19972;-45
2022/03/10 01:48:18;;;;;;;;;;;;;;;;;;2107373;28;20019;-45
2022/03/10 01:49:19;;;;;;;;;;;;;;;;;;2114662;28;20395;-46
2022/03/10 01:50:20;;;;;;;;;;;;;;;;;;2114619;28;19924;-46
2022/03/10 01:51:21;;;;;;;;;;;;;;;;;;2109377;28;20441;-46
2022/03/10 01:52:22;;;;;;;;;;;;;;;;;;2106237;28;19970;-46
2022/03/10 01:53:26;;;;;;;;;;;;;;;;;;2106425;28;20443;-45
2022/03/10 01:54:27;;;;;;;;;;;;;;;;;;2106486;28;19924;-49
2022/03/10 01:55:28;;;;;;;;;;;;;;;;;;2106209;28;19954;-49
2022/03/10 01:56:30;;;;;;;;;;;;;;;;;;2105979;28;19924;-50
2022/03/10 01:57:31;;;;;;;;;;;;;;;;;;2106518;28;20016;-49
2022/03/10 01:58:32;;;;;;;;;;;;;;;;;;2106317;28;20354;-50
2022/03/10 01:59:33;;;;;;;;;;;;;;;;;;2106316;28;19928;-49
2022/03/10 02:00:35;;;;;;;;;;;;;;;;;;2106187;28;19923;-49
2022/03/10 02:01:36;;;;;;;;;;;;;;;;;;2106200;28;19931;-49
2022/03/10 02:02:38;;;;;;;;;;;;;;;;;;2106156;28;20456;-49
2022/03/10 02:03:40;;;;;;;;;;;;;;;;;;2106025;28;20297;-49
2022/03/10 02:04:41;;;;;;;;;;;;;;;;;;2106131;28;20293;-50
2022/03/10 02:05:42;;;;;;;;;;;;;;;;;;2106142;28;20352;-49
2022/03/10 02:06:43;;;;;;;;;;;;;;;;;;2106073;28;19924;-50
2022/03/10 02:10:24;;;;;;;;;;;;;;;;;;2100902;28;20015;-49
2022/03/10 02:11:25;;;;;;;;;;;;;;;;;;2106093;28;19931;-48
2022/03/10 02:12:26;;;;;;;;;;;;;;;;;;2106185;28;19928;-48
2022/03/10 02:13:28;;;;;;;;;;;;;;;;;;2106152;28;19963;-49
2022/03/10 02:17:20;;;;;;;;;;;;;;;;;;2097550;28;20007;-49
2022/03/10 02:18:22;;;;;;;;;;;;;;;;;;2105513;28;19927;-46
2022/03/10 02:19:23;;;;;;;;;;;;;;;;;;2106119;28;19928;-46
2022/03/10 02:20:24;;;;;;;;;;;;;;;;;;2106035;28;19964;-45
2022/03/10 02:21:26;;;;;;;;;;;;;;;;;;2105496;28;19967;-45
2022/03/10 02:22:27;;;;;;;;;;;;;;;;;;2105635;28;19999;-46
2022/03/10 02:23:29;;;;;;;;;;;;;;;;;;2106015;28;19924;-45
2022/03/10 02:24:30;;;;;;;;;;;;;;;;;;2106147;28;20288;-46
2022/03/10 02:25:31;;;;;;;;;;;;;;;;;;2106120;28;19925;-45
2022/03/10 02:26:32;;;;;;;;;;;;;;;;;;2103846;28;19924;-46
2022/03/10 02:27:34;;;;;;;;;;;;;;;;;;2106039;28;20048;-46
2022/03/10 02:28:35;;;;;;;;;;;;;;;;;;2105943;28;20288;-46
2022/03/10 02:29:36;;;;;;;;;;;;;;;;;;2106280;28;19924;-48
2022/03/10 02:30:38;;;;;;;;;;;;;;;;;;2106050;28;19930;-50
2022/03/10 02:31:39;;;;;;;;;;;;;;;;;;2107316;28;19952;-49
2022/03/10 02:32:40;;;;;;;;;;;;;;;;;;2114106;28;19986;-49
2022/03/10 02:33:41;;;;;;;;;;;;;;;;;;2114311;28;20387;-49
2022/03/10 02:34:43;;;;;;;;;;;;;;;;;;2114330;28;19923;-51
2022/03/10 02:35:44;;;;;;;;;;;;;;;;;;2097766;28;19924;-50
2022/03/10 02:36:45;;;;;;;;;;;;;;;;;;2104007;28;19975;-49
2022/03/10 02:37:46;;;;;;;;;;;;;;;;;;2105905;28;19924;-51
2022/03/10 02:38:47;;;;;;;;;;;;;;;;;;2106025;28;19963;-52
2022/03/10 02:39:48;;;;;;;;;;;;;;;;;;2106062;28;19934;-49
2022/03/10 02:40:49;;;;;;;;;;;;;;;;;;2106069;28;19924;-49
2022/03/10 02:41:51;;;;;;;;;;;;;;;;;;2105922;28;19932;-49
2022/03/10 02:42:54;;;;;;;;;;;;;;;;;;2106018;28;19931;-50
2022/03/10 02:43:56;;;;;;;;;;;;;;;;;;2105702;28;19924;-52
2022/03/10 02:44:56;;;;;;;;;;;;;;;;;;2106089;28;19924;-49
2022/03/10 02:45:58;;;;;;;;;;;;;;;;;;2106055;28;19932;-46
2022/03/10 02:46:59;;;;;;;;;;;;;;;;;;2105850;28;19955;-46
2022/03/10 02:48:00;;;;;;;;;;;;;;;;;;2108254;28;19924;-45
2022/03/10 02:49:01;;;;;;;;;;;;;;;;;;2114330;28;20307;-46
2022/03/10 02:50:04;;;;;;;;;;;;;;;;;;2114355;28;20328;-45
2022/03/10 02:51:05;;;;;;;;;;;;;;;;;;2111081;28;19960;-46
2022/03/10 02:52:06;;;;;;;;;;;;;;;;;;2106014;28;20288;-45
2022/03/10 02:53:16;;;;;;;;;;;;;;;;;;2105824;28;19990;-45
2022/03/10 02:54:17;;;;;;;;;;;;;;;;;;2105911;28;19924;-46
2022/03/10 02:55:18;;;;;;;;;;;;;;;;;;2106202;28;19964;-46
2022/03/10 02:56:19;;;;;;;;;;;;;;;;;;2105823;28;19924;-46
2022/03/10 02:57:20;;;;;;;;;;;;;;;;;;2105811;28;19924;-46
2022/03/10 02:58:22;;;;;;;;;;;;;;;;;;2105787;28;19924;-46
2022/03/10 02:59:23;;;;;;;;;;;;;;;;;;2106961;28;19924;-50
2022/03/10 03:00:24;;;;;;;;;;;;;;;;;;2107688;28;20262;-51
2022/03/10 03:01:25;;;;;;;;;;;;;;;;;;2107523;28;20001;-49
2022/03/10 03:02:26;;;;;;;;;;;;;;;;;;2107178;28;19928;-49
2022/03/10 03:03:28;;;;;;;;;;;;;;;;;;2107353;28;20403;-49
2022/03/10 03:04:29;;;;;;;;;;;;;;;;;;2107155;28;19924;-48
2022/03/10 03:05:30;;;;;;;;;;;;;;;;;;2107295;28;19924;-49
2022/03/10 03:06:31;;;;;;;;;;;;;;;;;;2107026;28;19924;-45
2022/03/10 03:07:34;;;;;;;;;;;;;;;;;;2105143;28;20336;-49
2022/03/10 03:08:36;;;;;;;;;;;;;;;;;;2107245;28;19931;-49
2022/03/10 03:09:38;;;;;;;;;;;;;;;;;;2107134;28;19931;-49
2022/03/10 03:10:39;;;;;;;;;;;;;;;;;;2107161;28;19931;-52
2022/03/10 03:11:40;;;;;;;;;;;;;;;;;;2107221;28;19924;-49
2022/03/10 03:12:41;;;;;;;;;;;;;;;;;;2107270;28;19928;-48
2022/03/10 03:13:42;;;;;;;;;;;;;;;;;;2107029;28;19924;-49
2022/03/10 03:14:43;;;;;;;;;;;;;;;;;;2107502;28;20023;-45
2022/03/10 03:15:44;;;;;;;;;;;;;;;;;;2107211;28;19930;-45
2022/03/10 03:16:46;;;;;;;;;;;;;;;;;;2106951;28;20294;-45
2022/03/10 03:17:48;;;;;;;;;;;;;;;;;;2106590;28;20412;-45
2022/03/10 03:18:49;;;;;;;;;;;;;;;;;;2107345;28;19924;-47
2022/03/10 03:19:50;;;;;;;;;;;;;;;;;;2107189;28;19924;-45
2022/03/10 03:20:51;;;;;;;;;;;;;;;;;;2107637;28;19931;-49
2022/03/10 03:21:53;;;;;;;;;;;;;;;;;;2107222;28;20288;-49
2022/03/10 03:22:54;;;;;;;;;;;;;;;;;;2107247;28;20195;-48
2022/03/10 03:23:56;;;;;;;;;;;;;;;;;;2107125;28;19980;-49
2022/03/10 03:24:57;;;;;;;;;;;;;;;;;;2107433;28;19959;-49
2022/03/10 03:25:58;;;;;;;;;;;;;;;;;;2107143;28;19982;-50
2022/03/10 03:26:59;;;;;;;;;;;;;;;;;;2103178;28;19924;-50
2022/03/10 03:28:00;;;;;;;;;;;;;;;;;;2099844;28;20010;-49
2022/03/10 03:29:01;;;;;;;;;;;;;;;;;;2099358;28;19964;-50
2022/03/10 03:30:04;;;;;;;;;;;;;;;;;;2101638;28;20314;-49
2022/03/10 03:31:05;;;;;;;;;;;;;;;;;;2106218;28;19978;-49
2022/03/10 03:32:06;;;;;;;;;;;;;;;;;;2104316;28;20411;-48
2022/03/10 03:33:08;;;;;;;;;;;;;;;;;;2105047;28;20388;-49
2022/03/10 03:34:10;;;;;;;;;;;;;;;;;;2099927;28;20430;-50
2022/03/10 03:35:12;;;;;;;;;;;;;;;;;;2103964;28;19931;-47
2022/03/10 03:36:13;;;;;;;;;;;;;;;;;;2099485;28;19928;-46
2022/03/10 03:37:14;;;;;;;;;;;;;;;;;;2102180;28;20289;-46
2022/03/10 03:38:15;;;;;;;;;;;;;;;;;;2098558;28;19931;-48
2022/03/10 03:39:16;;;;;;;;;;;;;;;;;;2098827;28;19928;-46
2022/03/10 03:40:18;;;;;;;;;;;;;;;;;;2098705;28;19932;-46
2022/03/10 03:41:18;;;;;;;;;;;;;;;;;;2098511;28;20488;-46
2022/03/10 03:42:20;;;;;;;;;;;;;;;;;;2098578;28;19936;-46
2022/03/10 03:43:21;;;;;;;;;;;;;;;;;;2098610;28;20365;-46
2022/03/10 03:44:22;;;;;;;;;;;;;;;;;;2098584;28;19988;-46
2022/03/10 03:45:23;;;;;;;;;;;;;;;;;;2098721;28;20416;-46
2022/03/10 03:46:24;;;;;;;;;;;;;;;;;;2102330;28;20015;-46
2022/03/10 03:47:25;;;;;;;;;;;;;;;;;;2098575;28;19932;-45
2022/03/10 03:48:26;;;;;;;;;;;;;;;;;;2113027;28;19974;-46
2022/03/10 03:49:27;;;;;;;;;;;;;;;;;;2115406;28;20019;-46
2022/03/10 03:50:28;;;;;;;;;;;;;;;;;;2115461;28;20372;-46
2022/03/10 03:51:30;;;;;;;;;;;;;;;;;;2108603;28;19978;-47
2022/03/10 03:52:31;;;;;;;;;;;;;;;;;;2106978;28;19924;-47
2022/03/10 03:53:32;;;;;;;;;;;;;;;;;;2107087;28;19964;-46
2022/03/10 03:54:34;;;;;;;;;;;;;;;;;;2104780;28;19977;-49
2022/03/10 03:55:35;;;;;;;;;;;;;;;;;;2103518;28;20349;-49
2022/03/10 03:56:37;;;;;;;;;;;;;;;;;;2103732;28;19925;-52
2022/03/10 03:57:38;;;;;;;;;;;;;;;;;;2107241;28;20282;-51
2022/03/10 03:58:39;;;;;;;;;;;;;;;;;;2106991;28;19935;-45
2022/03/10 03:59:41;;;;;;;;;;;;;;;;;;2107057;28;19924;-46
2022/03/10 04:00:42;;;;;;;;;;;;;;;;;;2102985;28;19931;-46
2022/03/10 04:01:43;;;;;;;;;;;;;;;;;;2098609;28;19924;-46
2022/03/10 04:02:45;;;;;;;;;;;;;;;;;;2100285;28;19939;-46
2022/03/10 04:03:48;;;;;;;;;;;;;;;;;;2106795;28;20023;-45
2022/03/10 04:04:49;;;;;;;;;;;;;;;;;;2104337;28;19928;-46
2022/03/10 04:05:50;;;;;;;;;;;;;;;;;;2105421;28;19925;-49
2022/03/10 04:06:52;;;;;;;;;;;;;;;;;;2102855;28;19924;-51
2022/03/10 04:07:52;;;;;;;;;;;;;;;;;;2099645;28;19928;-51
2022/03/10 04:08:54;;;;;;;;;;;;;;;;;;2106673;28;19928;-48
2022/03/10 04:09:55;;;;;;;;;;;;;;;;;;2104480;28;20065;-46
2022/03/10 04:10:56;;;;;;;;;;;;;;;;;;2105656;28;19924;-46
2022/03/10 04:11:57;;;;;;;;;;;;;;;;;;2102856;28;19924;-46
2022/03/10 04:12:58;;;;;;;;;;;;;;;;;;2105578;28;19939;-45
2022/03/10 04:13:59;;;;;;;;;;;;;;;;;;2098550;28;19925;-45
2022/03/10 04:15:00;;;;;;;;;;;;;;;;;;2098716;28;20365;-49
2022/03/10 04:16:02;;;;;;;;;;;;;;;;;;2098754;28;19980;-48
2022/03/10 04:17:08;;;;;;;;;;;;;;;;;;2104497;28;20368;-49
2022/03/10 04:18:10;;;;;;;;;;;;;;;;;;2106878;28;19973;-50
2022/03/10 04:19:11;;;;;;;;;;;;;;;;;;2107043;28;20003;-48
2022/03/10 04:20:13;;;;;;;;;;;;;;;;;;2107193;28;20024;-45
2022/03/10 04:21:14;;;;;;;;;;;;;;;;;;2105972;28;20383;-46
2022/03/10 04:22:15;;;;;;;;;;;;;;;;;;2105271;28;19924;-49
2022/03/10 04:23:17;;;;;;;;;;;;;;;;;;2098656;28;19924;-46
2022/03/10 04:24:18;;;;;;;;;;;;;;;;;;2099378;28;19975;-46
2022/03/10 04:25:19;;;;;;;;;;;;;;;;;;2106851;28;20011;-45
2022/03/10 04:26:20;;;;;;;;;;;;;;;;;;2106927;28;20309;-50
2022/03/10 04:27:22;;;;;;;;;;;;;;;;;;2107188;28;20333;-47
2022/03/10 04:28:22;;;;;;;;;;;;;;;;;;2106885;28;19924;-46
2022/03/10 04:29:24;;;;;;;;;;;;;;;;;;2106672;28;20135;-46
2022/03/10 04:30:25;;;;;;;;;;;;;;;;;;2105062;28;19982;-45
2022/03/10 04:31:26;;;;;;;;;;;;;;;;;;2106622;28;19935;-50
2022/03/10 04:32:27;;;;;;;;;;;;;;;;;;2106719;28;19924;-49
2022/03/10 04:33:29;;;;;;;;;;;;;;;;;;2100771;28;19934;-49
2022/03/10 04:34:30;;;;;;;;;;;;;;;;;;2100261;28;19932;-50
2022/03/10 04:35:32;;;;;;;;;;;;;;;;;;2106975;28;20359;-51
2022/03/10 04:36:33;;;;;;;;;;;;;;;;;;2106367;28;20011;-50
2022/03/10 04:37:35;;;;;;;;;;;;;;;;;;2106594;28;20015;-50
2022/03/10 04:38:36;;;;;;;;;;;;;;;;;;2106749;28;19931;-49
2022/03/10 04:39:37;;;;;;;;;;;;;;;;;;2106964;28;19960;-49
2022/03/10 04:40:38;;;;;;;;;;;;;;;;;;2106674;28;19989;-52
2022/03/10 04:41:39;;;;;;;;;;;;;;;;;;2106851;28;19931;-51
2022/03/10 04:42:41;;;;;;;;;;;;;;;;;;2106764;28;20300;-50
2022/03/10 04:43:42;;;;;;;;;;;;;;;;;;2106811;28;20034;-48
2022/03/10 04:44:43;;;;;;;;;;;;;;;;;;2106696;28;19953;-52
2022/03/10 04:45:44;;;;;;;;;;;;;;;;;;2106616;28;19982;-49
2022/03/10 04:46:45;;;;;;;;;;;;;;;;;;2106613;28;19924;-49
2022/03/10 04:47:46;;;;;;;;;;;;;;;;;;2106954;28;20369;-51
2022/03/10 04:48:47;;;;;;;;;;;;;;;;;;2115221;28;19970;-51
2022/03/10 04:49:48;;;;;;;;;;;;;;;;;;2107692;28;19986;-49
2022/03/10 04:50:50;;;;;;;;;;;;;;;;;;2106470;28;19924;-50
2022/03/10 04:51:51;;;;;;;;;;;;;;;;;;2106463;28;20338;-50
2022/03/10 04:52:52;;;;;;;;;;;;;;;;;;2106283;28;20369;-49
2022/03/10 04:53:54;;;;;;;;;;;;;;;;;;2106046;28;20317;-49
2022/03/10 04:54:55;;;;;;;;;;;;;;;;;;2106001;28;19939;-46
2022/03/10 04:55:56;;;;;;;;;;;;;;;;;;2106021;28;20016;-45
2022/03/10 04:56:57;;;;;;;;;;;;;;;;;;2100189;28;19925;-48
2022/03/10 04:57:58;;;;;;;;;;;;;;;;;;2098332;28;19948;-45
2022/03/10 04:59:00;;;;;;;;;;;;;;;;;;2098264;28;19931;-46
2022/03/10 05:00:08;;;;;;;;;;;;;;;;;;2098461;28;20385;-51
2022/03/10 05:01:09;;;;;;;;;;;;;;;;;;2101055;28;19929;-49
2022/03/10 05:02:10;;;;;;;;;;;;;;;;;;2106370;28;19924;-49
2022/03/10 05:03:13;;;;;;;;;;;;;;;;;;2106870;28;19931;-45
2022/03/10 05:04:14;;;;;;;;;;;;;;;;;;2106856;28;19924;-46
2022/03/10 05:05:17;;;;;;;;;;;;;;;;;;2106648;28;19967;-46
2022/03/10 05:06:18;;;;;;;;;;;;;;;;;;2106495;28;19963;-49
2022/03/10 05:07:19;;;;;;;;;;;;;;;;;;2107343;28;19931;-46
2022/03/10 05:08:20;;;;;;;;;;;;;;;;;;2106662;28;19924;-45
2022/03/10 05:09:22;;;;;;;;;;;;;;;;;;2106264;28;19960;-45
2022/03/10 05:10:22;;;;;;;;;;;;;;;;;;2106470;28;20323;-46
2022/03/10 05:11:24;;;;;;;;;;;;;;;;;;2106397;28;19924;-45
2022/03/10 05:12:29;;;;;;;;;;;;;;;;;;2106438;28;19924;-48
2022/03/10 05:13:30;;;;;;;;;;;;;;;;;;2106511;28;20006;-49
2022/03/10 05:14:31;;;;;;;;;;;;;;;;;;2106515;28;19967;-51
2022/03/10 05:15:32;;;;;;;;;;;;;;;;;;2106377;28;20023;-48
2022/03/10 05:16:33;;;;;;;;;;;;;;;;;;2106495;28;19924;-49
2022/03/10 05:17:34;;;;;;;;;;;;;;;;;;2106342;28;19924;-48
2022/03/10 05:18:40;;;;;;;;;;;;;;;;;;2106634;28;19925;-46
2022/03/10 05:19:41;;;;;;;;;;;;;;;;;;2102683;28;19924;-49
2022/03/10 05:20:42;;;;;;;;;;;;;;;;;;2100590;28;19958;-50
2022/03/10 05:21:44;;;;;;;;;;;;;;;;;;2104444;28;19970;-52
2022/03/10 05:22:47;;;;;;;;;;;;;;;;;;2106326;28;19928;-50
2022/03/10 05:23:52;;;;;;;;;;;;;;;;;;2106024;28;19947;-51
2022/03/10 05:25:11;;;;;;;;;;;;;;;;;;2106400;28;19924;-51
2022/03/10 05:26:12;;;;;;;;;;;;;;;;;;2106281;28;19983;-49
2022/03/10 05:27:13;;;;;;;;;;;;;;;;;;2099657;28;19963;-48
2022/03/10 05:28:14;;;;;;;;;;;;;;;;;;2097829;28;19985;-50
2022/03/10 05:29:15;;;;;;;;;;;;;;;;;;2097994;28;19924;-49
2022/03/10 05:30:18;;;;;;;;;;;;;;;;;;2098498;28;19925;-46
2022/03/10 05:31:19;;;;;;;;;;;;;;;;;;2098269;28;20019;-45
2022/03/10 05:32:22;;;;;;;;;;;;;;;;;;2101623;28;20293;-46
2022/03/10 05:33:24;;;;;;;;;;;;;;;;;;2097720;28;20309;-46
2022/03/10 05:34:25;;;;;;;;;;;;;;;;;;2097866;28;20289;-45
2022/03/10 05:35:29;;;;;;;;;;;;;;;;;;2097886;28;20012;-46
2022/03/10 05:36:30;;;;;;;;;;;;;;;;;;2098044;28;19932;-46
2022/03/10 05:37:31;;;;;;;;;;;;;;;;;;2097870;28;19947;-45
2022/03/10 05:38:32;;;;;;;;;;;;;;;;;;2098029;28;19959;-45
2022/03/10 05:39:33;;;;;;;;;;;;;;;;;;2098221;28;19970;-51
2022/03/10 05:40:35;;;;;;;;;;;;;;;;;;2098098;28;19925;-49
2022/03/10 05:41:36;;;;;;;;;;;;;;;;;;2098053;28;19924;-46
2022/03/10 05:42:37;;;;;;;;;;;;;;;;;;2097985;28;19924;-45
2022/03/10 05:43:38;;;;;;;;;;;;;;;;;;2103598;28;20411;-46
2022/03/10 05:44:39;;;;;;;;;;;;;;;;;;2106386;28;19966;-46
2022/03/10 05:45:40;;;;;;;;;;;;;;;;;;2106366;28;19969;-45
2022/03/10 05:46:41;;;;;;;;;;;;;;;;;;2106141;28;20416;-46
2022/03/10 05:47:42;;;;;;;;;;;;;;;;;;2106351;28;20261;-46
2022/03/10 05:48:44;;;;;;;;;;;;;;;;;;2098021;28;20413;-46
2022/03/10 05:49:45;;;;;;;;;;;;;;;;;;2098066;28;20454;-53
2022/03/10 05:50:46;;;;;;;;;;;;;;;;;;2098289;28;20005;-51
2022/03/10 05:51:47;;;;;;;;;;;;;;;;;;2103122;28;19924;-51
2022/03/10 05:52:48;;;;;;;;;;;;;;;;;;2104096;28;20413;-49
2022/03/10 05:53:50;;;;;;;;;;;;;;;;;;2106391;28;19924;-47
2022/03/10 05:54:50;;;;;;;;;;;;;;;;;;2106741;28;20012;-46
2022/03/10 05:55:52;;;;;;;;;;;;;;;;;;2104872;28;20339;-45
2022/03/10 05:56:54;;;;;;;;;;;;;;;;;;2104790;28;20123;-46
2022/03/10 05:57:55;;;;;;;;;;;;;;;;;;2105967;28;19924;-50
2022/03/10 05:58:56;;;;;;;;;;;;;;;;;;2105973;28;19985;-49
2022/03/10 05:59:57;;;;;;;;;;;;;;;;;;2105979;28;20285;-49
2022/03/10 06:00:59;;;;;;;;;;;;;;;;;;2105605;28;19932;-51
2022/03/10 06:02:00;;;;;;;;;;;;;;;;;;2106122;28;19925;-49
2022/03/10 06:03:01;;;;;;;;;;;;;;;;;;2105397;28;19924;-50
2022/03/10 06:04:02;;;;;;;;;;;;;;;;;;2106242;28;19924;-50
2022/03/10 06:05:08;;;;;;;;;;;;;;;;;;2106171;28;20297;-45
2022/03/10 06:06:11;;;;;;;;;;;;;;;;;;2106183;28;19935;-45
2022/03/10 06:07:12;;;;;;;;;;;;;;;;;;2106419;28;20388;-46
2022/03/10 06:08:13;;;;;;;;;;;;;;;;;;2106392;28;19976;-45
2022/03/10 06:09:14;;;;;;;;;;;;;;;;;;2106137;28;20003;-45
2022/03/10 06:10:16;;;;;;;;;;;;;;;;;;2106366;28;19925;-51
2022/03/10 06:11:17;;;;;;;;;;;;;;;;;;2105875;28;19926;-52
2022/03/10 06:12:18;;;;;;;;;;;;;;;;;;2106226;28;20033;-52
2022/03/10 06:13:19;;;;;;;;;;;;;;;;;;2106058;28;19924;-50
2022/03/10 06:14:21;;;;;;;;;;;;;;;;;;2104023;28;19963;-49
2022/03/10 06:15:25;;;;;;;;;;;;;;;;;;2103049;28;19924;-46
2022/03/10 06:16:26;;;;;;;;;;;;;;;;;;2100699;28;20432;-46
2022/03/10 06:17:28;;;;;;;;;;;;;;;;;;2100417;28;19931;-46
2022/03/10 06:18:29;;;;;;;;;;;;;;;;;;2105219;28;20304;-46
2022/03/10 06:19:30;;;;;;;;;;;;;;;;;;2102619;28;19924;-46
2022/03/10 06:20:33;;;;;;;;;;;;;;;;;;2097736;28;20348;-45
2022/03/10 06:21:34;;;;;;;;;;;;;;;;;;2103855;28;20349;-46
2022/03/10 06:22:35;;;;;;;;;;;;;;;;;;2103124;28;20444;-46
2022/03/10 06:23:36;;;;;;;;;;;;;;;;;;2100468;28;19924;-46
2022/03/10 06:24:37;;;;;;;;;;;;;;;;;;2105720;28;20003;-46
2022/03/10 06:25:39;;;;;;;;;;;;;;;;;;2105809;28;20015;-46
2022/03/10 06:26:43;;;;;;;;;;;;;;;;;;2097524;28;20247;-45
2022/03/10 06:27:45;;;;;;;;;;;;;;;;;;2103481;28;19924;-45
2022/03/10 06:28:46;;;;;;;;;;;;;;;;;;2102155;28;19932;-45
2022/03/10 06:29:48;;;;;;;;;;;;;;;;;;2097560;28;19924;-45
2022/03/10 06:30:49;;;;;;;;;;;;;;;;;;2097363;28;19928;-45
2022/03/10 06:31:52;;;;;;;;;;;;;;;;;;2099293;28;19932;-49
2022/03/10 06:32:53;;;;;;;;;;;;;;;;;;2102309;28;20338;-46
2022/03/10 06:33:55;;;;;;;;;;;;;;;;;;2105171;28;19924;-49
2022/03/10 06:34:56;;;;;;;;;;;;;;;;;;2103696;28;19963;-48
2022/03/10 06:35:57;;;;;;;;;;;;;;;;;;2105461;28;20518;-50
2022/03/10 06:36:58;;;;;;;;;;;;;;;;;;2103984;28;19978;-45
2022/03/10 06:38:00;;;;;;;;;;;;;;;;;;2104533;28;20041;-48
2022/03/10 06:39:01;;;;;;;;;;;;;;;;;;2103734;28;20085;-47
2022/03/10 06:40:02;;;;;;;;;;;;;;;;;;2107100;28;19936;-48
2022/03/10 06:41:03;;;;;;;;;;;;;;;;;;2100664;28;20428;-45
2022/03/10 06:42:05;;;;;;;;;;;;;;;;;;2099301;28;19924;-47
2022/03/10 06:43:06;;;;;;;;;;;;;;;;;;2103947;28;19952;-48
2022/03/10 06:44:08;;;;;;;;;;;;;;;;;;2104063;28;20031;-48
2022/03/10 06:45:09;;;;;;;;;;;;;;;;;;2103503;28;19942;-59
2022/03/10 06:46:12;;;;;;;;;;;;;;;;;;2107452;28;19924;-59
2022/03/10 06:47:13;;;;;;;;;;;;;;;;;;2103994;28;19993;-58
2022/03/10 06:48:14;;;;;;;;;;;;;;;;;;2106228;28;19935;-45
2022/03/10 06:49:16;;;;;;;;;;;;;;;;;;2099018;28;19924;-45
2022/03/10 06:50:16;;;;;;;;;;;;;;;;;;2099170;28;19967;-52
2022/03/10 06:51:18;;;;;;;;;;;;;;;;;;2103037;28;19938;-51
2022/03/10 06:52:20;;;;;;;;;;;;;;;;;;2106434;28;20395;-45
2022/03/10 06:53:21;;;;;;;;;;;;;;;;;;2106641;28;20018;-46
2022/03/10 06:54:22;;;;;;;;;;;;;;;;;;2107023;28;20325;-46
2022/03/10 06:55:24;;;;;;;;;;;;;;;;;;2099103;28;20356;-45
2022/03/10 06:56:26;;;;;;;;;;;;;;;;;;2101662;28;19936;-45
2022/03/10 06:57:30;;;;;;;;;;;;;;;;;;2102931;28;20077;-53
2022/03/10 06:58:32;;;;;;;;;;;;;;;;;;2101786;28;19924;-52
2022/03/10 06:59:33;;;;;;;;;;;;;;;;;;2107185;28;20050;-51
2022/03/10 07:00:34;;;;;;;;;;;;;;;;;;2107374;28;20018;-50
2022/03/10 07:01:36;;;;;;;;;;;;;;;;;;2104596;28;19973;-51
2022/03/10 07:02:37;;;;;;;;;;;;;;;;;;2106919;28;19946;-50
2022/03/10 07:03:39;;;;;;;;;;;;;;;;;;2101910;28;19997;-52
2022/03/10 07:04:40;;;;;;;;;;;;;;;;;;2098938;28;20335;-53
2022/03/10 07:05:41;;;;;;;;;;;;;;;;;;2098943;28;19924;-50